Time;durP1;ratioP1;P1;durP2;ratioP2;P2;SDS_P1;SDS_P2;PMS_P1;PMS_P2;Temp;Humidity;BMP_temperature;BMP_pressure;BME280_temperature;BME280_humidity;BME280_pressure;Samples;Min_cycle;Max_cycle;Signal;HPM_P1;HPM_P2
2021/10/29 00:00:36;;;;;;;60.35;26.27;;;;;;;10.51;100.00;100919.56;4999700;28;20038;-80
2021/10/29 00:03:03;;;;;;;56.42;27.35;;;;;;;10.47;100.00;100912.94;5000449;28;20023;-80
2021/10/29 00:05:29;;;;;;;61.85;27.55;;;;;;;10.24;100.00;100876.31;4999979;28;20090;-79
2021/10/29 00:07:55;;;;;;;62.78;26.75;;;;;;;10.48;100.00;100917.28;5001572;28;20090;-80
2021/10/29 00:10:21;;;;;;;54.55;27.23;;;;;;;10.51;100.00;100916.88;4999960;28;20725;-80
2021/10/29 00:12:46;;;;;;;58.53;26.70;;;;;;;10.52;100.00;100910.47;4998776;28;20428;-80
2021/10/29 00:15:13;;;;;;;51.83;26.65;;;;;;;10.46;100.00;100893.28;5005814;28;20051;-80
2021/10/29 00:17:38;;;;;;;61.28;27.60;;;;;;;10.54;100.00;100909.25;4991378;28;20034;-80
2021/10/29 00:20:07;;;;;;;58.10;27.70;;;;;;;10.50;100.00;100891.00;5004630;28;20038;-80
2021/10/29 00:22:32;;;;;;;62.60;28.65;;;;;;;10.45;100.00;100885.38;5014046;28;20011;-80
2021/10/29 00:24:58;;;;;;;61.60;27.98;;;;;;;10.40;100.00;100890.50;5012472;28;20032;-80
2021/10/29 00:27:23;;;;;;;57.70;26.98;;;;;;;10.44;100.00;100900.69;5008771;28;20026;-80
2021/10/29 00:29:49;;;;;;;61.22;27.45;;;;;;;10.49;100.00;100913.53;5006449;28;20038;-80
2021/10/29 00:32:15;;;;;;;61.63;27.83;;;;;;;10.50;100.00;100917.91;5002730;28;20026;-80
2021/10/29 00:34:40;;;;;;;55.63;26.40;;;;;;;10.47;100.00;100919.13;5000832;28;20034;-79
2021/10/29 00:37:06;;;;;;;63.38;27.85;;;;;;;10.50;100.00;100916.06;4999978;28;20109;-80
2021/10/29 00:39:31;;;;;;;63.63;27.13;;;;;;;10.31;100.00;100887.97;5000167;28;20117;-80
2021/10/29 00:41:57;;;;;;;57.45;27.33;;;;;;;10.47;100.00;100923.69;5002361;28;20429;-80
2021/10/29 00:44:27;;;;;;;51.75;26.20;;;;;;;10.44;100.00;100910.63;5004224;28;20045;-79
2021/10/29 00:46:53;;;;;;;56.72;26.70;;;;;;;10.44;100.00;100907.94;5011077;28;20022;-80
2021/10/29 00:49:19;;;;;;;49.08;25.45;;;;;;;10.40;100.00;100912.03;5000553;28;20057;-81
2021/10/29 00:51:45;;;;;;;57.92;26.63;;;;;;;10.41;100.00;100914.53;4983898;28;20633;-80
2021/10/29 00:54:11;;;;;;;58.00;25.92;;;;;;;10.42;100.00;100907.28;4995621;28;20056;-80
2021/10/29 00:56:37;;;;;;;58.03;26.48;;;;;;;10.41;100.00;100906.47;5007758;28;20031;-81
2021/10/29 00:59:03;;;;;;;53.80;25.25;;;;;;;10.19;100.00;100881.41;4981434;28;20026;-81
2021/10/29 01:01:28;;;;;;;56.25;25.42;;;;;;;10.37;100.00;100907.88;5012797;28;20026;-81
2021/10/29 01:03:54;;;;;;;54.30;24.38;;;;;;;10.38;100.00;100904.16;5006570;28;20359;-81
2021/10/29 01:06:19;;;;;;;56.40;26.10;;;;;;;10.37;100.00;100901.69;4988162;28;20034;-80
2021/10/29 01:08:45;;;;;;;51.72;26.23;;;;;;;10.27;100.00;100881.31;5016693;28;20366;-80
2021/10/29 01:11:17;;;;;;;52.92;25.05;;;;;;;10.35;100.00;100894.63;4999247;28;20153;-80
2021/10/29 01:13:47;;;;;;;47.63;24.60;;;;;;;10.33;100.00;100894.00;4998764;28;20045;-80
2021/10/29 01:16:14;;;;;;;49.10;25.55;;;;;;;10.26;100.00;100879.63;4998434;28;20100;-79
2021/10/29 01:18:40;;;;;;;56.55;26.02;;;;;;;10.31;100.00;100893.34;4997802;28;20447;-80
2021/10/29 01:21:05;;;;;;;49.30;24.92;;;;;;;10.31;100.00;100893.34;4997507;28;20028;-79
2021/10/29 01:23:35;;;;;;;47.97;24.98;;;;;;;10.31;100.00;100904.09;4982141;28;20125;-80
2021/10/29 01:26:12;;;;;;;52.08;25.02;;;;;;;10.18;100.00;100882.47;4996913;28;20038;-80
2021/10/29 01:28:38;;;;;;;57.20;25.33;;;;;;;10.25;100.00;100883.34;4998568;28;20026;-80
2021/10/29 01:31:04;;;;;;;54.10;24.35;;;;;;;10.30;100.00;100888.19;4998386;28;20049;-80
2021/10/29 01:33:31;;;;;;;59.22;24.90;;;;;;;10.24;100.00;100886.25;4997990;28;20026;-80
2021/10/29 01:35:57;;;;;;;61.83;26.20;;;;;;;10.28;100.00;100891.06;4996699;28;20117;-79
2021/10/29 01:38:29;;;;;;;55.97;26.67;;;;;;;10.28;100.00;100892.91;4998901;28;20038;-80
2021/10/29 01:40:55;;;;;;;59.30;26.02;;;;;;;10.23;100.00;100885.41;4998493;28;20018;-80
2021/10/29 01:43:20;;;;;;;54.00;25.75;;;;;;;10.24;100.00;100886.25;4997709;28;20122;-80
2021/10/29 01:45:46;;;;;;;64.38;27.13;;;;;;;10.22;100.00;100886.41;4998297;28;20030;-81
2021/10/29 01:48:11;;;;;;;52.15;25.30;;;;;;;10.14;100.00;100875.00;4998320;28;20105;-79
2021/10/29 01:50:36;;;;;;;57.78;26.85;;;;;;;10.11;100.00;100868.97;4999006;28;20041;-80
2021/10/29 01:53:02;;;;;;;48.20;25.13;;;;;;;10.18;100.00;100885.16;5022981;28;20030;-80
2021/10/29 01:55:27;;;;;;;57.47;25.67;;;;;;;10.13;100.00;100863.38;5011479;28;20065;-80
2021/10/29 01:57:53;;;;;;;54.80;25.75;;;;;;;9.92;100.00;100820.41;4999955;28;20527;-81
2021/10/29 02:00:18;;;;;;;47.10;24.90;;;;;;;10.19;100.00;100862.59;5001974;28;20026;-80
2021/10/29 02:02:44;;;;;;;50.58;25.60;;;;;;;9.94;100.00;100827.25;5018111;28;20037;-82
2021/10/29 02:05:09;;;;;;;56.58;25.83;;;;;;;10.17;100.00;100853.91;5019592;28;20041;-80
2021/10/29 02:07:35;;;;;;;44.47;24.23;;;;;;;10.16;100.00;100849.53;5002604;28;20081;-81
2021/10/29 02:10:01;;;;;;;49.80;25.48;;;;;;;10.17;100.00;100845.84;5008845;28;20566;-80
2021/10/29 02:12:26;;;;;;;48.47;25.25;;;;;;;10.07;100.00;100837.28;5001905;28;20124;-80
2021/10/29 02:14:52;;;;;;;48.22;25.20;;;;;;;10.14;100.00;100843.53;4991893;28;20065;-81
2021/10/29 02:17:18;;;;;;;52.70;25.55;;;;;;;10.11;100.00;100838.56;4982844;28;20102;-80
2021/10/29 02:19:44;;;;;;;57.25;25.60;;;;;;;10.15;100.00;100841.69;4995396;28;20051;-81
2021/10/29 02:22:09;;;;;;;53.13;25.50;;;;;;;10.15;100.00;100839.81;4981390;28;20456;-81
2021/10/29 02:24:34;;;;;;;55.45;27.23;;;;;;;10.15;100.00;100839.00;5001190;28;20038;-80
2021/10/29 02:27:01;;;;;;;56.13;27.00;;;;;;;10.13;100.00;100833.78;4980347;28;20193;-80
2021/10/29 02:29:27;;;;;;;49.90;26.75;;;;;;;10.16;100.00;100830.72;5006238;28;20034;-80
2021/10/29 02:31:52;;;;;;;57.80;27.52;;;;;;;10.08;100.00;100817.44;4999629;28;20136;-81
2021/10/29 02:34:18;;;;;;;55.88;28.63;;;;;;;10.12;100.00;100822.22;4999371;28;20117;-80
2021/10/29 02:36:43;;;;;;;56.33;27.70;;;;;;;10.13;100.00;100823.03;5016254;28;20174;-80
2021/10/29 02:39:09;;;;;;;56.03;28.00;;;;;;;10.15;100.00;100826.38;5002453;28;20421;-81
2021/10/29 02:41:34;;;;;;;58.83;28.17;;;;;;;10.01;100.00;100806.63;5002464;28;20031;-80
2021/10/29 02:44:00;;;;;;;61.63;28.02;;;;;;;10.10;100.00;100815.41;4982838;28;20785;-80
2021/10/29 02:46:26;;;;;;;58.22;29.10;;;;;;;10.14;100.00;100818.53;4997266;28;20409;-81
2021/10/29 02:48:52;;;;;;;59.95;30.42;;;;;;;10.07;100.00;100815.78;4978881;28;20496;-80
2021/10/29 02:51:18;;;;;;;61.17;28.95;;;;;;;10.04;100.00;100802.72;4987286;28;20034;-80
2021/10/29 02:53:43;;;;;;;61.47;29.67;;;;;;;10.11;100.00;100814.34;4999991;28;20038;-80
2021/10/29 02:56:09;;;;;;;62.85;29.80;;;;;;;10.10;100.00;100810.84;5001917;28;20038;-81
2021/10/29 02:58:35;;;;;;;63.40;31.02;;;;;;;10.08;100.00;100812.06;5015456;28;20022;-81
2021/10/29 03:01:01;;;;;;;61.28;29.90;;;;;;;10.12;100.00;100806.09;5009803;28;20041;-79
2021/10/29 03:03:27;;;;;;;66.38;32.35;;;;;;;9.76;100.00;100743.59;4996814;28;20061;-79
2021/10/29 03:05:52;;;;;;;63.40;30.90;;;;;;;10.16;100.00;100814.59;4999533;28;20049;-80
2021/10/29 03:08:19;;;;;;;70.03;30.73;;;;;;;10.12;100.00;100794.50;4998399;28;20476;-80
2021/10/29 03:10:45;;;;;;;69.15;32.65;;;;;;;10.17;100.00;100802.81;5014619;28;20030;-80
2021/10/29 03:13:10;;;;;;;63.17;30.23;;;;;;;10.24;100.00;100803.69;4997622;28;20038;-79
2021/10/29 03:15:37;;;;;;;70.57;31.33;;;;;;;10.14;100.00;100784.38;4981727;28;20042;-80
2021/10/29 03:18:03;;;;;;;64.95;30.98;;;;;;;10.24;100.00;100798.31;4977683;28;20122;-80
2021/10/29 03:20:28;;;;;;;67.35;32.10;;;;;;;10.29;100.00;100808.50;4997287;28;20102;-80
2021/10/29 03:22:54;;;;;;;66.80;31.63;;;;;;;10.30;100.00;100807.50;5004861;28;20087;-79
2021/10/29 03:25:19;;;;;;;63.42;31.67;;;;;;;10.21;100.00;100796.03;5003869;28;20069;-79
2021/10/29 03:27:45;;;;;;;67.93;32.72;;;;;;;10.22;100.00;100794.16;5015568;28;20027;-80
2021/10/29 03:30:11;;;;;;;66.35;31.98;;;;;;;10.29;100.00;100806.63;5000118;28;20038;-80
2021/10/29 03:32:37;;;;;;;66.82;32.30;;;;;;;10.28;100.00;100799.59;4997001;28;20040;-80
2021/10/29 03:35:03;;;;;;;58.95;31.27;;;;;;;10.29;100.00;100797.75;4993416;28;20031;-80
2021/10/29 03:42:38;;;;;;;66.28;32.55;;;;;;;10.28;100.00;100788.84;4997073;28;20101;-80
2021/10/29 03:45:07;;;;;;;64.20;32.95;;;;;;;10.24;100.00;100781.34;5009553;28;20117;-80
2021/10/29 03:47:40;;;;;;;65.03;33.30;;;;;;;10.17;100.00;100784.00;5010522;28;20348;-80
2021/10/29 03:53:24;;;;;;;62.60;32.67;;;;;;;10.24;100.00;100781.34;4954223;28;20035;-80
2021/10/29 03:55:52;;;;;;;65.05;32.08;;;;;;;10.21;100.00;100774.50;5004033;28;20038;-80
2021/10/29 03:58:18;;;;;;;64.35;33.58;;;;;;;10.26;100.00;100774.75;4995271;28;20034;-80
2021/10/29 04:00:43;;;;;;;59.53;32.80;;;;;;;10.28;100.00;100763.81;5009818;28;20375;-80
2021/10/29 04:03:09;;;;;;;60.42;33.22;;;;;;;10.28;100.00;100763.81;5017510;28;20234;-80
2021/10/29 04:05:35;;;;;;;61.92;32.92;;;;;;;10.26;100.00;100766.69;5006025;28;20036;-79
2021/10/29 04:08:01;;;;;;;60.88;34.08;;;;;;;10.24;100.00;100760.66;5032640;28;20144;-80
2021/10/29 04:10:29;;;;;;;67.85;33.65;;;;;;;10.20;100.00;100759.41;4997682;28;20049;-80
2021/10/29 04:13:14;;;;;;;61.10;31.90;;;;;;;10.18;100.00;100756.06;4996854;28;20035;-80
2021/10/29 04:15:41;;;;;;;62.63;33.35;;;;;;;10.14;100.00;100754.00;4997742;28;20022;-80
2021/10/29 04:18:10;;;;;;;62.05;33.88;;;;;;;10.12;100.00;100751.47;5024296;28;20037;-80
2021/10/29 04:20:36;;;;;;;66.43;33.17;;;;;;;10.00;100.00;100737.78;5016475;28;20019;-80
2021/10/29 04:23:02;;;;;;;68.30;34.47;;;;;;;10.18;100.00;100761.44;5006479;28;20159;-80
2021/10/29 04:25:30;;;;;;;60.92;31.95;;;;;;;10.18;100.00;100761.44;4993038;28;20038;-80
2021/10/29 04:27:58;;;;;;;67.82;34.45;;;;;;;10.12;100.00;100752.31;4961159;28;20097;-80
2021/10/29 04:30:28;;;;;;;64.57;32.83;;;;;;;10.21;100.00;100761.06;5003811;28;20186;-79
2021/10/29 04:32:54;;;;;;;66.63;33.85;;;;;;;10.15;100.00;100756.47;5010413;28;20038;-81
2021/10/29 04:35:19;;;;;;;65.88;33.97;;;;;;;10.25;100.00;100767.69;5007589;28;20025;-81
2021/10/29 04:37:44;;;;;;;61.50;33.10;;;;;;;10.28;100.00;100753.88;5000902;28;20061;-84
2021/10/29 04:40:12;;;;;;;60.28;34.45;;;;;;;10.26;100.00;100750.56;5019978;28;20380;-82
2021/10/29 04:42:38;;;;;;;66.95;34.15;;;;;;;10.30;100.00;100746.47;5011035;28;20026;-79
2021/10/29 04:45:05;;;;;;;58.60;33.15;;;;;;;10.24;100.00;100735.63;5021010;28;20019;-81
2021/10/29 04:47:32;;;;;;;65.70;33.45;;;;;;;10.32;100.00;100748.94;5039428;28;20041;-82
2021/10/29 04:49:58;;;;;;;57.90;32.92;;;;;;;10.23;100.00;100729.44;4989877;28;20050;-81
2021/10/29 04:52:23;;;;;;;56.03;33.50;;;;;;;10.31;100.00;100747.28;5013467;28;20041;-81
2021/10/29 04:54:50;;;;;;;59.17;34.13;;;;;;;10.31;100.00;100740.03;5005607;28;20038;-81
2021/10/29 04:57:15;;;;;;;55.50;32.63;;;;;;;10.32;100.00;100740.88;5008549;28;20109;-82
2021/10/29 04:59:41;;;;;;;53.50;31.90;;;;;;;10.31;100.00;100737.34;5013395;28;20019;-81
2021/10/29 05:02:06;;;;;;;57.25;32.10;;;;;;;10.31;100.00;100725.78;5017899;28;20045;-81
2021/10/29 05:04:33;;;;;;;53.85;32.42;;;;;;;10.30;100.00;100729.50;5014156;28;20030;-80
2021/10/29 05:06:58;;;;;;;54.20;32.00;;;;;;;10.26;100.00;100720.97;5003350;28;20059;-79
2021/10/29 05:09:23;;;;;;;52.78;31.92;;;;;;;10.28;100.00;100726.16;5004062;28;20086;-81
2021/10/29 05:11:49;;;;;;;56.75;32.00;;;;;;;10.22;100.00;100716.16;4987793;28;20038;-79
2021/10/29 05:14:14;;;;;;;59.58;31.20;;;;;;;10.31;100.00;100723.91;5000805;28;20049;-79
2021/10/29 05:16:40;;;;;;;55.28;31.27;;;;;;;10.16;100.00;100693.59;5015153;28;20071;-80
2021/10/29 05:19:05;;;;;;;60.88;33.85;;;;;;;10.30;100.00;100714.19;5005984;28;20034;-80
2021/10/29 05:21:31;;;;;;;56.03;31.60;;;;;;;10.31;100.00;100715.84;4998316;28;20036;-79
2021/10/29 05:23:56;;;;;;;53.63;31.05;;;;;;;10.22;100.00;100700.03;5018158;28;20030;-79
2021/10/29 05:26:22;;;;;;;53.00;31.77;;;;;;;10.30;100.00;100716.88;4998280;28;20034;-80
2021/10/29 05:28:48;;;;;;;56.30;32.22;;;;;;;10.22;100.00;100710.78;4999188;28;20058;-79
2021/10/29 05:31:14;;;;;;;54.58;31.88;;;;;;;10.29;100.00;100722.44;4994262;28;20039;-79
2021/10/29 05:33:39;;;;;;;53.88;30.08;;;;;;;10.28;100.00;100721.63;5005275;28;20042;-81
2021/10/29 05:36:05;;;;;;;53.80;30.77;;;;;;;10.24;100.00;100723.03;5028656;28;20022;-80
2021/10/29 05:38:31;;;;;;;56.92;29.63;;;;;;;10.24;100.00;100732.94;5008435;28;20038;-81
2021/10/29 05:40:59;;;;;;;56.05;31.30;;;;;;;10.20;100.00;100718.22;5008496;28;20030;-81
2021/10/29 05:43:32;;;;;;;52.90;29.10;;;;;;;10.19;100.00;100722.78;5007572;28;20069;-80
2021/10/29 05:45:57;;;;;;;54.45;30.08;;;;;;;10.17;100.00;100726.72;5001486;28;20034;-81
2021/10/29 05:48:23;;;;;;;49.47;29.75;;;;;;;10.19;100.00;100722.78;4994096;28;20396;-81
2021/10/29 05:50:50;;;;;;;55.58;29.92;;;;;;;10.09;100.00;100708.84;5000415;28;20449;-80
2021/10/29 05:55:56;;;;;;;54.10;29.38;;;;;;;10.20;100.00;100724.44;5000933;28;20427;-80
2021/10/29 05:58:22;;;;;;;57.50;30.23;;;;;;;10.19;100.00;100728.16;5001788;28;20069;-80
2021/10/29 06:00:47;;;;;;;58.53;29.50;;;;;;;10.21;100.00;100717.22;5008929;28;20085;-80
2021/10/29 06:03:13;;;;;;;52.53;29.83;;;;;;;10.21;100.00;100723.41;5009690;28;20039;-79
2021/10/29 06:05:39;;;;;;;57.30;29.83;;;;;;;10.13;100.00;100718.19;5013902;28;20054;-81
2021/10/29 06:08:04;;;;;;;58.72;30.27;;;;;;;10.19;100.00;100721.94;5000769;28;20129;-79
2021/10/29 06:10:30;;;;;;;54.35;31.05;;;;;;;10.06;100.00;100707.38;4997065;28;20064;-80
2021/10/29 06:12:55;;;;;;;59.03;30.90;;;;;;;10.18;100.00;100734.56;5012448;28;20030;-80
2021/10/29 06:15:22;;;;;;;55.80;30.58;;;;;;;10.20;100.00;100735.22;5000032;28;20057;-80
2021/10/29 06:17:47;;;;;;;56.58;31.60;;;;;;;10.22;100.00;100724.25;4994401;28;20027;-80
2021/10/29 06:20:15;;;;;;;54.03;30.70;;;;;;;10.24;100.00;100730.25;4995326;28;20023;-80
2021/10/29 06:22:46;;;;;;;63.70;32.42;;;;;;;10.12;100.00;100706.59;4995884;28;20030;-79
2021/10/29 06:25:20;;;;;;;60.17;32.95;;;;;;;10.23;100.00;100716.00;4997327;28;20022;-82
2021/10/29 06:30:31;;;;;;;58.53;31.40;;;;;;;10.32;100.00;100728.25;4996062;28;20040;-81
2021/10/29 06:32:58;;;;;;;58.22;31.67;;;;;;;10.16;100.00;100700.84;4995057;28;20049;-80
2021/10/29 06:35:23;;;;;;;55.05;33.08;;;;;;;10.34;100.00;100731.59;5021611;28;20038;-78
2021/10/29 06:37:49;;;;;;;55.53;32.50;;;;;;;9.74;100.00;100640.88;4998657;28;20088;-79
2021/10/29 06:40:16;;;;;;;53.17;31.02;;;;;;;10.28;100.00;100716.25;4992179;28;20095;-80
2021/10/29 06:42:48;;;;;;;57.38;31.70;;;;;;;10.39;100.00;100728.28;4994389;28;20034;-79
2021/10/29 07:01:59;;;;;;;52.72;30.30;;;;;;;10.44;100.00;100744.66;4996058;28;20164;-80
2021/10/29 07:40:04;;;;;;;52.30;29.63;;;;;;;10.55;100.00;100762.91;5000468;28;20372;-79
2021/10/29 07:42:40;;;;;;;57.80;31.25;;;;;;;10.65;100.00;100769.78;4991397;28;20026;-79
2021/10/29 07:45:09;;;;;;;53.88;30.98;;;;;;;10.57;100.00;100768.94;4994733;28;20077;-79
2021/10/29 07:47:36;;;;;;;49.70;29.63;;;;;;;10.66;100.00;100766.06;4991281;28;20105;-80
2021/10/29 07:50:06;;;;;;;52.90;29.92;;;;;;;10.70;100.00;100772.72;4988389;28;20029;-78
2021/10/29 07:52:32;;;;;;;54.22;28.50;;;;;;;10.66;100.00;100764.22;4990527;28;20038;-79
2021/10/29 07:54:58;;;;;;;54.75;31.27;;;;;;;10.75;100.00;100768.38;4995216;28;20042;-78
2021/10/29 07:57:24;;;;;;;49.03;31.23;;;;;;;10.78;100.00;100759.09;4982037;28;20026;-78
2021/10/29 07:59:51;;;;;;;52.55;30.77;;;;;;;10.79;100.00;100761.59;4985062;28;20022;-78
2021/10/29 08:02:17;;;;;;;50.80;29.63;;;;;;;10.80;100.00;100765.94;4992222;28;20041;-78
2021/10/29 08:04:44;;;;;;;51.97;29.67;;;;;;;10.83;100.00;100772.78;4980261;28;20041;-78
2021/10/29 08:07:10;;;;;;;51.90;30.58;;;;;;;10.85;100.00;100768.00;4992995;28;20448;-78
2021/10/29 08:09:36;;;;;;;55.17;30.58;;;;;;;10.87;100.00;100773.22;4988258;28;20054;-78
2021/10/29 08:12:02;;;;;;;53.08;30.38;;;;;;;10.89;100.00;100776.50;4987761;28;20023;-78
2021/10/29 08:14:27;;;;;;;54.22;30.33;;;;;;;10.90;100.00;100767.41;4994124;28;20081;-78
2021/10/29 08:16:53;;;;;;;49.08;30.30;;;;;;;10.67;100.00;100741.66;4998430;28;20460;-77
2021/10/29 08:19:25;;;;;;;53.80;31.48;;;;;;;10.90;100.00;100786.25;5001829;28;20528;-78
2021/10/29 08:21:51;;;;;;;54.38;32.45;;;;;;;10.86;100.00;100774.22;4994959;28;20026;-78
2021/10/29 08:24:16;;;;;;;53.65;30.98;;;;;;;10.87;100.00;100775.91;5014522;28;20134;-78
2021/10/29 08:26:41;;;;;;;52.63;30.75;;;;;;;10.92;100.00;100782.31;4994475;28;20039;-78
2021/10/29 08:29:07;;;;;;;49.05;30.80;;;;;;;10.89;100.00;100776.50;4998150;28;20026;-78
2021/10/29 08:31:33;;;;;;;49.58;31.52;;;;;;;10.80;100.00;100771.31;4998391;28;20033;-78
2021/10/29 08:34:00;;;;;;;46.17;29.23;;;;;;;10.92;100.00;100784.19;4996459;28;20026;-78
2021/10/29 08:36:28;;;;;;;46.08;29.02;;;;;;;10.93;100.00;100789.38;4994105;28;20113;-78
2021/10/29 08:38:54;;;;;;;45.47;29.75;;;;;;;10.82;100.00;100765.72;4988942;28;20027;-78
2021/10/29 08:41:19;;;;;;;48.13;30.35;;;;;;;10.88;100.00;100762.22;4995432;28;20088;-78
2021/10/29 08:43:45;;;;;;;59.22;31.58;;;;;;;10.97;100.00;100779.03;4992616;28;20062;-78
2021/10/29 08:46:11;;;;;;;51.88;31.13;;;;;;;10.96;100.00;100783.59;4996911;28;20479;-77
2021/10/29 08:48:37;;;;;;;49.80;31.02;;;;;;;11.02;100.00;100779.25;4961832;28;20037;-78
2021/10/29 08:51:03;;;;;;;49.65;29.60;;;;;;;10.99;100.00;100764.34;4989145;28;20027;-79
2021/10/29 08:53:29;;;;;;;46.30;29.73;;;;;;;11.01;100.00;100782.97;4994348;28;20064;-79
2021/10/29 08:56:00;;;;;;;47.95;29.63;;;;;;;11.06;100.00;100783.22;4997452;28;20454;-79
2021/10/29 08:58:25;;;;;;;46.53;29.05;;;;;;;11.05;100.00;100776.97;4998276;28;20033;-79
2021/10/29 09:00:51;;;;;;;58.80;31.27;;;;;;;11.10;100.00;100792.53;5006939;28;20026;-80
2021/10/29 09:03:40;;;;;;;49.00;30.77;;;;;;;11.11;100.00;100788.81;5007720;28;20029;-79
2021/10/29 09:09:12;;;;;;;49.92;30.10;;;;;;;11.11;100.00;100779.91;5013345;28;20433;-80
2021/10/29 09:34:04;;;;;;;46.08;29.42;;;;;;;11.39;100.00;100760.88;4975976;28;20052;-77
2021/10/29 09:36:39;;;;;;;45.28;29.20;;;;;;;11.46;100.00;100767.13;4974612;28;20031;-78
2021/10/29 09:39:07;;;;;;;48.83;29.73;;;;;;;11.46;100.00;100767.97;4986469;28;20037;-77
2021/10/29 09:41:34;;;;;;;43.58;29.45;;;;;;;11.46;100.00;100762.56;4994604;28;20045;-77
2021/10/29 09:44:10;;;;;;;44.33;27.77;;;;;;;11.45;100.00;100757.38;4979025;28;20041;-78
2021/10/29 09:46:55;;;;;;;43.95;28.40;;;;;;;11.48;100.00;100773.94;4996552;28;20010;-78
2021/10/29 09:49:27;;;;;;;;;;;;;;;11.46;100.00;100767.97;4995794;28;20686;-79
2021/10/29 09:52:09;;;;;;;45.40;27.92;;;;;;;11.43;100.00;100764.84;4993137;28;20276;-79
2021/10/29 09:57:16;;;;;;;42.53;27.77;;;;;;;11.51;100.00;100764.63;5005767;28;20432;-78
2021/10/29 09:59:42;;;;;;;38.55;27.88;;;;;;;11.49;100.00;100767.53;5001067;28;20026;-78
2021/10/29 10:02:18;;;;;;;39.33;26.60;;;;;;;11.53;100.00;100770.66;4992353;28;20034;-79
2021/10/29 10:04:43;;;;;;;43.50;28.98;;;;;;;11.52;100.00;100777.06;4989853;28;20018;-77
2021/10/29 10:07:09;;;;;;;42.75;27.95;;;;;;;11.52;100.00;100761.75;4993313;28;20093;-79
2021/10/29 10:09:38;;;;;;;42.92;29.17;;;;;;;11.55;100.00;100768.56;4998533;28;20057;-77
2021/10/29 10:12:05;;;;;;;41.08;28.08;;;;;;;11.53;100.00;100763.41;4992955;28;20022;-77
2021/10/29 10:14:32;;;;;;;40.63;27.50;;;;;;;11.59;100.00;100767.13;4977730;28;20084;-77
2021/10/29 10:16:58;;;;;;;45.20;26.85;;;;;;;11.61;100.00;100758.84;4993718;28;20077;-77
2021/10/29 10:19:23;;;;;;;43.53;27.38;;;;;;;11.66;100.00;100767.97;4994102;28;20034;-78
2021/10/29 10:21:53;;;;;;;39.65;27.25;;;;;;;11.64;100.00;100761.13;4994858;28;20038;-78
2021/10/29 10:24:24;;;;;;;42.15;28.00;;;;;;;11.66;100.00;100765.28;4978007;28;20436;-78
2021/10/29 10:27:15;;;;;;;36.90;26.08;;;;;;;11.65;100.00;100762.75;4987965;28;20034;-78
2021/10/29 10:48:44;;;;;;;39.30;26.35;;;;;;;11.65;100.00;100758.19;4993589;28;20057;-79
2021/10/29 10:51:38;;;;;;;38.10;26.77;;;;;;;11.74;100.00;100758.84;4993360;28;20042;-78
2021/10/29 10:57:10;;;;;;;39.78;24.83;;;;;;;11.77;100.00;100739.56;4996577;28;20058;-78
2021/10/29 11:05:10;;;;;;;37.45;24.55;;;;;;;11.82;100.00;100744.31;4995887;28;20097;-82
2021/10/29 11:10:17;;;;;;;39.83;25.55;;;;;;;11.80;100.00;100746.41;5001668;28;20043;-79
2021/10/29 11:12:44;;;;;;;42.60;26.25;;;;;;;11.80;100.00;100743.69;4997000;28;20059;-79
2021/10/29 11:15:26;;;;;;;35.95;25.67;;;;;;;11.79;100.00;100733.94;5000552;28;20346;-78
2021/10/29 11:17:57;;;;;;;39.95;25.98;;;;;;;11.75;100.00;100723.59;4998611;28;20030;-78
2021/10/29 11:20:45;;;;;;;38.85;26.67;;;;;;;11.81;100.00;100731.88;4993079;28;20076;-78
2021/10/29 11:23:21;;;;;;;38.13;25.67;;;;;;;11.66;100.00;100691.69;5006577;28;20023;-78
2021/10/29 11:26:08;;;;;;;35.30;25.83;;;;;;;11.81;100.00;100715.69;5002465;28;20089;-79
2021/10/29 11:28:37;;;;;;;34.63;24.85;;;;;;;11.76;100.00;100709.06;5003688;28;20033;-79
2021/10/29 11:31:05;;;;;;;39.42;25.65;;;;;;;11.78;100.00;100706.16;5006333;28;20015;-79
2021/10/29 11:33:32;;;;;;;37.35;25.50;;;;;;;11.74;100.00;100710.31;5014762;28;20046;-78
2021/10/29 11:36:07;;;;;;;39.75;26.40;;;;;;;11.62;100.00;100702.03;5021583;28;20027;-78
2021/10/29 11:38:35;;;;;;;35.25;24.90;;;;;;;11.73;100.00;100709.50;5011811;28;20045;-78
2021/10/29 11:41:03;;;;;;;34.35;24.85;;;;;;;11.70;100.00;100699.13;4995036;28;20021;-78
2021/10/29 11:43:30;;;;;;;39.78;24.48;;;;;;;11.68;100.00;100711.16;4990476;28;20050;-79
2021/10/29 11:46:04;;;;;;;34.58;24.52;;;;;;;11.65;100.00;100712.38;4993205;28;20033;-78
2021/10/29 11:48:29;;;;;;;33.55;24.42;;;;;;;11.64;100.00;100705.34;4992088;28;20113;-78
2021/10/29 11:51:23;;;;;;;36.83;24.65;;;;;;;11.53;100.00;100690.63;4991141;28;20038;-79
2021/10/29 11:53:55;;;;;;;38.33;24.85;;;;;;;11.50;100.00;100698.31;4989664;28;20041;-78
2021/10/29 12:01:39;;;;;;;33.67;22.77;;;;;;;11.43;100.00;100692.09;4997991;28;20099;-78
2021/10/29 12:09:32;;;;;;;34.30;24.40;;;;;;;11.34;100.00;100704.09;4994861;28;20110;-79
2021/10/29 12:12:05;;;;;;;35.40;24.48;;;;;;;11.31;100.00;100688.34;4996633;28;20042;-78
2021/10/29 12:14:33;;;;;;;33.75;24.23;;;;;;;11.34;100.00;100706.81;4997031;28;20018;-78
2021/10/29 12:17:22;;;;;;;34.15;24.35;;;;;;;11.31;100.00;100701.81;4992089;28;20109;-78
2021/10/29 12:19:55;;;;;;;34.33;24.20;;;;;;;11.26;100.00;100699.75;4990827;28;20026;-79
2021/10/29 12:24:57;;;;;;;35.65;24.30;;;;;;;11.04;100.00;100681.09;4993212;28;20035;-78
2021/10/29 12:27:36;;;;;;;38.42;25.75;;;;;;;10.56;100.00;100613.06;5043470;23;20065;-79
2021/10/29 12:33:14;;;;;;;37.42;25.15;;;;;;;10.96;100.00;100689.38;5013557;28;20526;-79
2021/10/29 13:01:30;;;;;;;41.35;26.35;;;;;;;10.69;100.00;100639.19;4998290;28;20342;-78
2021/10/29 13:04:03;;;;;;;45.03;26.40;;;;;;;10.93;100.00;100672.78;5001107;28;20711;-79
2021/10/29 13:06:33;;;;;;;41.55;26.75;;;;;;;11.04;100.00;100688.34;5016247;28;20052;-79
2021/10/29 13:08:59;;;;;;;45.92;27.52;;;;;;;10.92;100.00;100669.25;5010168;28;20128;-78
2021/10/29 13:11:26;;;;;;;46.10;28.83;;;;;;;10.86;100.00;100667.41;5012884;28;20064;-78
2021/10/29 13:13:59;;;;;;;40.53;28.13;;;;;;;11.00;100.00;100692.47;5010626;28;20481;-79
2021/10/29 13:16:26;;;;;;;45.03;28.30;;;;;;;10.88;100.00;100664.50;5014317;28;20105;-78
2021/10/29 13:19:25;;;;;;;40.03;27.33;;;;;;;10.97;100.00;100661.41;5013065;28;20100;-78
2021/10/29 14:02:29;;;;;;;40.08;27.33;;;;;;;10.86;100.00;100621.63;5012966;28;20415;-78
2021/10/29 14:32:26;;;;;;;33.58;21.58;;;;;;;10.85;100.00;100629.91;5009450;28;20061;-78
2021/10/29 14:34:55;;;;;;;34.85;21.10;;;;;;;10.67;100.00;100608.97;4991798;28;20054;-78
2021/10/29 14:37:40;;;;;;;28.85;21.38;;;;;;;10.85;100.00;100633.41;4997905;28;20041;-78
2021/10/29 14:42:42;;;;;;;28.38;19.70;;;;;;;10.55;100.00;100588.03;5014763;28;20099;-78
2021/10/29 14:45:24;;;;;;;33.65;20.33;;;;;;;10.75;100.00;100620.34;4998490;28;20048;-78
2021/10/29 14:53:31;;;;;;;28.63;20.23;;;;;;;10.86;100.00;100636.94;5000906;28;20441;-78
2021/10/29 15:01:51;;;;;;;31.15;19.58;;;;;;;10.81;100.00;100619.53;4984613;28;20092;-78
2021/10/29 15:07:14;;;;;;;29.27;19.38;;;;;;;10.80;100.00;100611.69;5016287;28;20037;-81
2021/10/29 15:26:11;;;;;;;27.17;15.80;;;;;;;10.68;100.00;100624.91;4998177;28;20045;-78
2021/10/29 15:31:14;;;;;;;22.20;15.48;;;;;;;10.60;100.00;100608.16;5011406;28;20079;-79
2021/10/29 15:42:24;;;;;;;20.35;13.65;;;;;;;10.22;100.00;100563.72;4990332;28;20558;-79
2021/10/29 15:44:58;;;;;;;22.95;13.13;;;;;;;10.41;100.00;100590.91;4977727;28;20030;-80